createdAt,value
2018-02-24T00:00:46.362Z,21.75
2018-02-24T00:03:13.761Z,21.66
2018-02-24T00:05:41.133Z,21.77
2018-02-24T00:08:08.475Z,21.73
2018-02-24T00:10:35.977Z,21.70
2018-02-24T00:13:03.310Z,21.69
2018-02-24T00:15:30.653Z,21.69
2018-02-24T00:17:58.041Z,21.41
2018-02-24T00:20:25.397Z,21.67
2018-02-24T00:22:52.728Z,21.62
2018-02-24T00:25:20.076Z,21.64
2018-02-24T00:27:47.431Z,21.56
2018-02-24T00:30:14.803Z,21.62
2018-02-24T00:32:42.239Z,21.54
2018-02-24T00:35:09.583Z,21.40
2018-02-24T00:37:36.973Z,21.62
2018-02-24T00:40:04.354Z,21.57
2018-02-24T00:42:38.841Z,21.35
2018-02-24T00:45:06.226Z,21.54
2018-02-24T00:47:33.568Z,21.54
2018-02-24T00:50:00.951Z,21.56
2018-02-24T00:52:28.289Z,21.49
2018-02-24T00:54:55.665Z,21.56
2018-02-24T00:57:23.015Z,21.53
2018-02-24T00:59:50.355Z,21.60
2018-02-24T01:02:17.693Z,21.50
2018-02-24T01:04:45.038Z,21.56
2018-02-24T01:07:12.400Z,21.54
2018-02-24T01:09:39.740Z,21.53
2018-02-24T01:12:07.110Z,21.52
2018-02-24T01:14:34.523Z,21.52
2018-02-24T01:17:01.914Z,21.47
2018-02-24T01:19:29.302Z,21.20
2018-02-24T01:21:56.636Z,21.45
2018-02-24T01:24:24.055Z,21.42
2018-02-24T01:26:51.438Z,21.48
2018-02-24T01:29:18.777Z,21.48
2018-02-24T01:31:46.119Z,21.40
2018-02-24T01:34:13.467Z,21.43
2018-02-24T01:36:40.810Z,21.49
2018-02-24T01:39:08.208Z,21.36
2018-02-24T01:41:35.546Z,21.43
2018-02-24T01:44:02.905Z,21.43
2018-02-24T01:46:30.290Z,21.44
2018-02-24T01:48:57.639Z,21.42
2018-02-24T01:51:25.095Z,21.43
2018-02-24T01:53:52.468Z,21.43
2018-02-24T01:56:19.814Z,21.35
2018-02-24T01:58:47.160Z,21.43
2018-02-24T02:01:14.516Z,21.41
2018-02-24T02:03:41.854Z,21.41
2018-02-24T02:06:09.190Z,21.40
2018-02-24T02:08:36.551Z,21.41
2018-02-24T02:11:03.886Z,21.37
2018-02-24T02:13:31.234Z,21.35
2018-02-24T02:15:58.576Z,21.30
2018-02-24T02:18:25.983Z,21.34
2018-02-24T02:20:53.327Z,21.30
2018-02-24T02:23:20.662Z,21.35
2018-02-24T02:25:48.054Z,21.26
2018-02-24T02:28:15.410Z,21.32
2018-02-24T02:30:42.754Z,21.34
2018-02-24T02:33:10.118Z,21.24
2018-02-24T02:35:37.543Z,21.30
2018-02-24T02:38:04.900Z,21.30
2018-02-24T02:40:32.242Z,21.36
2018-02-24T02:42:59.580Z,21.31
2018-02-24T02:45:26.930Z,21.33
2018-02-24T02:47:54.316Z,21.16
2018-02-24T02:50:21.671Z,21.25
2018-02-24T02:52:49.072Z,21.15
2018-02-24T02:55:16.415Z,21.15
2018-02-24T02:57:43.767Z,21.28
2018-02-24T03:00:11.122Z,21.27
2018-02-24T03:02:38.534Z,21.25
2018-02-24T03:05:05.955Z,21.27
2018-02-24T03:07:33.310Z,21.22
2018-02-24T03:10:00.655Z,21.22
2018-02-24T03:12:28.041Z,21.13
2018-02-24T03:14:55.378Z,21.25
2018-02-24T03:17:22.710Z,21.25
2018-02-24T03:19:50.055Z,21.25
2018-02-24T03:22:17.399Z,21.14
2018-02-24T03:24:44.742Z,21.17
2018-02-24T03:27:12.121Z,21.23
2018-02-24T03:29:39.530Z,21.23
2018-02-24T03:32:06.911Z,21.23
2018-02-24T03:34:34.250Z,21.20
2018-02-24T03:37:01.646Z,21.17
2018-02-24T03:39:28.992Z,21.20
2018-02-24T03:41:56.337Z,21.12
2018-02-24T03:44:23.683Z,21.14
2018-02-24T03:46:51.066Z,21.19
2018-02-24T03:49:18.419Z,21.20
2018-02-24T03:51:45.758Z,21.12
2018-02-24T03:54:13.150Z,21.14
2018-02-24T03:56:40.482Z,21.01
2018-02-24T03:59:07.824Z,21.09
2018-02-24T04:01:35.183Z,21.18
2018-02-24T04:04:02.531Z,21.18
2018-02-24T04:06:29.869Z,21.15
2018-02-24T04:08:57.248Z,21.11
2018-02-24T04:11:24.633Z,21.13
2018-02-24T04:13:52.030Z,21.15
2018-02-24T04:16:19.419Z,21.12
2018-02-24T04:18:46.755Z,21.13
2018-02-24T04:21:14.094Z,21.11
2018-02-24T04:23:41.471Z,21.10
2018-02-24T04:26:08.812Z,21.11
2018-02-24T04:28:36.152Z,21.10
2018-02-24T04:31:03.531Z,21.06
2018-02-24T04:33:30.878Z,21.14
2018-02-24T04:35:58.232Z,21.13
2018-02-24T04:38:25.575Z,21.09
2018-02-24T04:40:52.910Z,21.14
2018-02-24T04:43:20.246Z,21.11
2018-02-24T04:45:47.595Z,21.12
2018-02-24T04:48:14.934Z,21.04
2018-02-24T04:50:42.307Z,21.12
2018-02-24T04:53:09.666Z,21.03
2018-02-24T04:55:37.058Z,21.01
2018-02-24T04:58:04.396Z,21.05
2018-02-24T05:00:31.733Z,21.08
2018-02-24T05:02:59.070Z,21.09
2018-02-24T05:05:26.480Z,21.06
2018-02-24T05:07:53.817Z,21.07
2018-02-24T05:10:21.174Z,21.10
2018-02-24T05:12:48.544Z,21.07
2018-02-24T05:15:16.028Z,21.02
2018-02-24T05:17:43.371Z,21.02
2018-02-24T05:20:10.762Z,21.07
2018-02-24T05:22:38.124Z,21.07
2018-02-24T05:25:05.463Z,21.06
2018-02-24T05:27:32.804Z,21.08
2018-02-24T05:30:00.156Z,20.90
2018-02-24T05:32:27.506Z,20.97
2018-02-24T05:34:54.897Z,21.00
2018-02-24T05:37:22.279Z,21.07
2018-02-24T05:39:49.670Z,21.08
2018-02-24T05:42:17.062Z,21.07
2018-02-24T05:44:44.449Z,21.07
2018-02-24T05:47:11.900Z,20.94
2018-02-24T05:49:39.290Z,21.04
2018-02-24T05:52:06.679Z,21.06
2018-02-24T05:54:34.027Z,21.06
2018-02-24T05:57:01.367Z,21.06
2018-02-24T05:59:28.709Z,21.09
2018-02-24T06:01:56.067Z,21.03
2018-02-24T06:04:23.462Z,21.03
2018-02-24T06:06:51.184Z,21.00
2018-02-24T06:09:18.552Z,21.06
2018-02-24T06:11:45.972Z,21.05
2018-02-24T06:14:13.326Z,21.05
2018-02-24T06:16:40.765Z,21.10
2018-02-24T06:19:08.112Z,21.07
2018-02-24T06:21:35.458Z,21.08
2018-02-24T06:24:02.802Z,21.05
2018-02-24T06:26:30.179Z,21.13
2018-02-24T06:28:57.545Z,21.10
2018-02-24T06:31:24.916Z,21.16
2018-02-24T06:33:52.311Z,21.17
2018-02-24T06:36:19.671Z,21.18
2018-02-24T06:38:47.023Z,21.19
2018-02-24T06:41:14.374Z,21.18
2018-02-24T06:43:41.758Z,21.16
2018-02-24T06:46:09.115Z,21.11
2018-02-24T06:48:36.562Z,21.16
2018-02-24T06:51:03.906Z,21.17
2018-02-24T06:53:31.288Z,21.24
2018-02-24T06:55:58.654Z,21.24
2018-02-24T06:58:26.054Z,21.27
2018-02-24T07:00:53.396Z,21.12
2018-02-24T07:03:20.739Z,21.32
2018-02-24T07:05:48.120Z,21.29
2018-02-24T07:08:15.518Z,21.41
2018-02-24T07:10:42.863Z,21.43
2018-02-24T07:13:10.268Z,21.45
2018-02-24T07:15:37.750Z,21.48
2018-02-24T07:18:05.099Z,21.49
2018-02-24T07:20:32.438Z,21.52
2018-02-24T07:22:59.783Z,21.53
2018-02-24T07:25:27.174Z,21.52
2018-02-24T07:27:54.519Z,21.61
2018-02-24T07:30:21.861Z,21.64
2018-02-24T07:32:49.203Z,21.47
2018-02-24T07:35:16.538Z,21.55
2018-02-24T07:37:43.949Z,21.67
2018-02-24T07:40:11.396Z,21.68
2018-02-24T07:42:38.866Z,21.69
2018-02-24T07:45:06.214Z,21.70
2018-02-24T07:47:33.625Z,21.64
2018-02-24T07:50:00.986Z,21.73
2018-02-24T07:52:28.390Z,21.71
2018-02-24T07:54:55.774Z,21.75
2018-02-24T07:57:23.148Z,21.77
2018-02-24T07:59:50.499Z,21.76
2018-02-24T08:02:17.938Z,21.72
2018-02-24T08:04:45.331Z,21.72
2018-02-24T08:07:12.648Z,21.78
2018-02-24T08:09:40.259Z,21.72
2018-02-24T08:12:07.696Z,21.78
2018-02-24T08:14:35.080Z,21.78
2018-02-24T08:17:02.513Z,21.79
2018-02-24T08:19:29.874Z,21.71
2018-02-24T08:21:57.338Z,21.83
2018-02-24T08:24:24.690Z,21.84
2018-02-24T08:26:52.119Z,21.76
2018-02-24T08:29:19.481Z,21.85
2018-02-24T08:31:46.839Z,21.85
2018-02-24T08:34:14.194Z,21.83
2018-02-24T08:36:41.542Z,21.83
2018-02-24T08:39:08.892Z,21.71
2018-02-24T08:41:36.230Z,21.89
2018-02-24T08:44:03.576Z,21.89
2018-02-24T08:46:30.930Z,21.81
2018-02-24T08:48:58.276Z,21.89
2018-02-24T08:51:25.622Z,21.84
2018-02-24T08:53:53.005Z,21.82
2018-02-24T08:56:20.370Z,21.88
2018-02-24T08:58:47.718Z,21.88
2018-02-24T09:01:15.185Z,21.92
2018-02-24T09:03:42.540Z,21.90
2018-02-24T09:06:09.980Z,21.91
2018-02-24T09:08:37.368Z,21.95
2018-02-24T09:11:04.715Z,21.98
2018-02-24T09:13:32.052Z,21.90
2018-02-24T09:15:59.403Z,21.78
2018-02-24T09:18:26.749Z,22.02
2018-02-24T09:20:54.106Z,22.07
2018-02-24T09:23:21.526Z,21.94
2018-02-24T09:25:48.919Z,22.04
2018-02-24T09:28:16.267Z,22.04
2018-02-24T09:30:43.621Z,22.16
2018-02-24T09:33:10.995Z,22.11
2018-02-24T09:35:38.360Z,22.15
2018-02-24T09:38:05.767Z,22.14
2018-02-24T09:40:33.112Z,22.16
2018-02-24T09:43:00.485Z,22.19
2018-02-24T09:45:27.865Z,22.03
2018-02-24T09:47:55.201Z,22.18
2018-02-24T09:50:22.542Z,22.12
2018-02-24T09:52:49.886Z,22.12
2018-02-24T09:55:17.219Z,21.99
2018-02-24T09:57:44.582Z,22.19
2018-02-24T10:00:11.992Z,22.04
2018-02-24T10:02:39.324Z,22.04
2018-02-24T10:05:06.726Z,22.23
2018-02-24T10:07:34.118Z,22.24
2018-02-24T10:10:01.457Z,22.19
2018-02-24T10:12:28.798Z,22.17
2018-02-24T10:14:56.142Z,22.14
2018-02-24T10:17:23.501Z,22.23
2018-02-24T10:19:50.838Z,22.05
2018-02-24T10:22:18.222Z,22.23
2018-02-24T10:24:45.660Z,22.25
2018-02-24T10:27:13.053Z,22.25
2018-02-24T10:29:40.438Z,22.23
2018-02-24T10:32:07.834Z,22.25
2018-02-24T10:34:35.173Z,22.11
2018-02-24T10:37:02.514Z,22.30
2018-02-24T10:39:29.870Z,22.28
2018-02-24T10:41:57.279Z,22.13
2018-02-24T10:44:24.639Z,22.29
2018-02-24T10:46:52.042Z,22.23
2018-02-24T10:49:19.398Z,22.33
2018-02-24T10:51:46.752Z,22.35
2018-02-24T10:54:14.128Z,22.13
2018-02-24T10:56:41.567Z,22.14
2018-02-24T10:59:08.950Z,22.31
2018-02-24T11:01:36.376Z,22.20
2018-02-24T11:04:03.742Z,22.30
2018-02-24T11:06:31.169Z,22.36
2018-02-24T11:08:58.668Z,22.30
2018-02-24T11:11:26.112Z,22.14
2018-02-24T11:13:54.933Z,22.31
2018-02-24T11:16:22.330Z,22.23
2018-02-24T11:18:49.688Z,22.30
2018-02-24T11:21:17.083Z,22.23
2018-02-24T11:23:44.437Z,22.35
2018-02-24T11:26:11.864Z,21.67
2018-02-24T11:28:39.248Z,21.35
2018-02-24T11:31:06.591Z,21.18
2018-02-24T11:33:36.057Z,21.19
2018-02-24T11:36:03.475Z,21.01
2018-02-24T11:38:30.855Z,21.03
2018-02-24T11:40:58.226Z,20.93
2018-02-24T11:43:25.565Z,20.85
2018-02-24T11:45:52.914Z,20.82
2018-02-24T11:48:20.310Z,20.87
2018-02-24T11:50:47.673Z,20.77
2018-02-24T11:53:15.039Z,20.64
2018-02-24T11:55:42.522Z,20.78
2018-02-24T11:58:09.864Z,20.89
2018-02-24T12:00:37.355Z,20.81
2018-02-24T12:03:05.918Z,20.83
2018-02-24T12:05:33.288Z,20.75
2018-02-24T12:08:00.775Z,20.70
2018-02-24T12:10:28.226Z,20.60
2018-02-24T12:12:55.659Z,20.80
2018-02-24T12:15:23.022Z,20.75
2018-02-24T12:17:50.397Z,20.76
2018-02-24T12:20:17.760Z,20.47
2018-02-24T12:22:45.204Z,20.96
2018-02-24T12:25:12.673Z,21.72
2018-02-24T12:27:42.484Z,21.68
2018-02-24T12:30:09.847Z,21.70
2018-02-24T12:32:37.297Z,21.97
2018-02-24T12:35:04.778Z,21.99
2018-02-24T12:37:32.164Z,21.90
2018-02-24T12:39:59.526Z,21.98
2018-02-24T12:42:26.923Z,22.09
2018-02-24T12:44:54.260Z,21.91
2018-02-24T12:47:21.604Z,22.05
2018-02-24T12:49:48.966Z,22.13
2018-02-24T12:52:16.310Z,22.16
2018-02-24T12:54:43.711Z,22.17
2018-02-24T12:57:11.043Z,22.22
2018-02-24T12:59:38.395Z,22.19
2018-02-24T13:02:06.593Z,22.19
2018-02-24T13:04:33.974Z,22.26
2018-02-24T13:07:01.323Z,22.22
2018-02-24T13:09:28.672Z,22.27
2018-02-24T13:11:56.060Z,22.29
2018-02-24T13:14:23.410Z,22.26
2018-02-24T13:16:50.764Z,22.23
2018-02-24T13:19:18.103Z,22.25
2018-02-24T13:21:45.485Z,22.15
2018-02-24T13:24:13.164Z,22.24
2018-02-24T13:26:40.591Z,22.23
2018-02-24T13:29:08.031Z,22.22
2018-02-24T13:31:35.501Z,22.22
2018-02-24T13:34:02.857Z,22.19
2018-02-24T13:36:30.208Z,22.14
2018-02-24T13:38:57.647Z,22.17
2018-02-24T13:41:25.007Z,22.19
2018-02-24T13:43:52.576Z,22.00
2018-02-24T13:46:19.978Z,22.15
2018-02-24T13:48:47.364Z,22.13
2018-02-24T13:51:14.702Z,22.04
2018-02-24T13:53:42.058Z,22.04
2018-02-24T13:56:09.510Z,22.11
2018-02-24T13:58:36.939Z,22.06
2018-02-24T14:01:04.283Z,22.11
2018-02-24T14:03:31.699Z,22.12
2018-02-24T14:05:59.042Z,22.06
2018-02-24T14:08:26.436Z,22.04
2018-02-24T14:10:53.848Z,22.01
2018-02-24T14:13:21.258Z,22.09
2018-02-24T14:15:48.668Z,21.91
2018-02-24T14:18:16.050Z,22.09
2018-02-24T14:20:43.398Z,22.02
2018-02-24T14:23:10.864Z,22.08
2018-02-24T14:25:38.226Z,22.05
2018-02-24T14:28:05.636Z,22.02
2018-02-24T14:30:33.051Z,22.06
2018-02-24T14:33:00.452Z,22.05
2018-02-24T14:35:27.811Z,22.06
2018-02-24T14:37:55.166Z,21.97
2018-02-24T14:40:22.514Z,22.03
2018-02-24T14:42:49.867Z,22.07
2018-02-24T14:45:17.252Z,21.94
2018-02-24T14:47:44.594Z,22.01
2018-02-24T14:50:12.016Z,22.00
2018-02-24T14:52:39.363Z,22.01
2018-02-24T14:55:06.714Z,22.07
2018-02-24T14:57:34.074Z,22.04
2018-02-24T15:00:01.503Z,22.01
2018-02-24T15:02:28.895Z,22.02
2018-02-24T15:04:56.281Z,21.93
2018-02-24T15:07:23.618Z,21.97
2018-02-24T15:09:50.979Z,22.01
2018-02-24T15:12:18.317Z,22.02
2018-02-24T15:14:45.705Z,22.00
2018-02-24T15:17:13.044Z,22.03
2018-02-24T15:19:40.470Z,21.96
2018-02-24T15:22:07.892Z,21.94
2018-02-24T15:24:35.250Z,21.98
2018-02-24T15:27:02.662Z,21.99
2018-02-24T15:29:30.057Z,21.95
2018-02-24T15:31:57.438Z,21.98
2018-02-24T15:34:24.793Z,21.98
2018-02-24T15:36:52.185Z,21.97
2018-02-24T15:39:19.527Z,21.90
2018-02-24T15:41:46.890Z,21.99
2018-02-24T15:44:14.245Z,22.01
2018-02-24T15:46:41.619Z,21.98
2018-02-24T15:49:08.975Z,22.02
2018-02-24T15:51:36.354Z,21.99
2018-02-24T15:54:03.710Z,21.96
2018-02-24T15:56:31.072Z,21.91
2018-02-24T15:58:58.414Z,21.98
2018-02-24T16:01:25.767Z,21.96
2018-02-24T16:03:53.155Z,21.93
2018-02-24T16:06:20.511Z,22.00
2018-02-24T16:08:47.856Z,21.91
2018-02-24T16:11:15.218Z,21.93
2018-02-24T16:13:42.610Z,21.98
2018-02-24T16:16:09.990Z,21.97
2018-02-24T16:18:37.404Z,21.97
2018-02-24T16:21:04.754Z,21.91
2018-02-24T16:23:32.105Z,21.90
2018-02-24T16:25:59.477Z,21.74
2018-02-24T16:28:26.853Z,21.91
2018-02-24T16:30:54.219Z,21.92
2018-02-24T16:33:21.563Z,21.91
2018-02-24T16:35:48.967Z,21.91
2018-02-24T16:38:16.323Z,21.87
2018-02-24T16:40:43.695Z,21.52
2018-02-24T16:43:11.039Z,21.91
2018-02-24T16:45:38.415Z,21.77
2018-02-24T16:48:05.808Z,21.93
2018-02-24T16:50:33.168Z,21.85
2018-02-24T16:53:00.623Z,21.85
2018-02-24T16:55:27.977Z,21.77
2018-02-24T16:57:55.321Z,21.81
2018-02-24T17:00:22.668Z,21.77
2018-02-24T17:02:50.014Z,21.90
2018-02-24T17:05:17.351Z,21.83
2018-02-24T17:07:44.691Z,21.82
2018-02-24T17:10:12.046Z,21.73
2018-02-24T17:12:39.415Z,21.82
2018-02-24T17:15:06.810Z,21.85
2018-02-24T17:17:34.155Z,21.86
2018-02-24T17:20:01.542Z,21.77
2018-02-24T17:22:28.933Z,21.81
2018-02-24T17:24:56.271Z,21.71
2018-02-24T17:27:23.613Z,21.77
2018-02-24T17:29:50.955Z,21.76
2018-02-24T17:32:18.325Z,21.67
2018-02-24T17:34:45.689Z,21.79
2018-02-24T17:37:13.057Z,21.78
2018-02-24T17:39:40.447Z,21.78
2018-02-24T17:42:07.864Z,21.78
2018-02-24T17:44:35.222Z,21.75
2018-02-24T17:47:02.612Z,21.79
2018-02-24T17:49:29.955Z,21.67
2018-02-24T17:51:57.310Z,21.71
2018-02-24T17:54:24.665Z,21.62
2018-02-24T17:56:52.047Z,21.71
2018-02-24T17:59:19.422Z,21.72
2018-02-24T18:01:46.767Z,21.65
2018-02-24T18:04:14.112Z,21.71
2018-02-24T18:06:41.487Z,21.76
2018-02-24T18:09:08.830Z,21.71
2018-02-24T18:11:36.180Z,21.66
2018-02-24T18:14:03.537Z,21.58
2018-02-24T18:16:30.922Z,21.72
2018-02-24T18:18:58.274Z,21.71
2018-02-24T18:21:25.619Z,21.63
2018-02-24T18:23:52.959Z,21.59
2018-02-24T18:26:20.310Z,21.70
2018-02-24T18:28:47.647Z,21.61
2018-02-24T18:31:14.991Z,21.66
2018-02-24T18:33:42.340Z,21.69
2018-02-24T18:36:09.719Z,21.69
2018-02-24T18:38:37.118Z,21.73
2018-02-24T18:41:04.498Z,21.59
2018-02-24T18:43:31.897Z,21.63
2018-02-24T18:45:59.245Z,21.56
2018-02-24T18:48:26.591Z,21.64
2018-02-24T18:50:53.942Z,21.69
2018-02-24T18:53:21.303Z,21.71
2018-02-24T18:55:48.650Z,21.59
2018-02-24T18:58:16.023Z,21.65
2018-02-24T19:00:43.422Z,21.64
2018-02-24T19:03:10.777Z,21.57
2018-02-24T19:05:38.117Z,21.57
2018-02-24T19:08:05.467Z,21.55
2018-02-24T19:10:32.813Z,21.60
2018-02-24T19:13:00.163Z,21.49
2018-02-24T19:15:27.539Z,21.58
2018-02-24T19:17:54.924Z,21.61
2018-02-24T19:20:22.277Z,21.64
2018-02-24T19:22:49.655Z,21.49
2018-02-24T19:25:17.069Z,21.50
2018-02-24T19:27:44.426Z,21.57
2018-02-24T19:30:11.776Z,21.48
2018-02-24T19:32:39.166Z,21.54
2018-02-24T19:35:06.566Z,21.57
2018-02-24T19:37:33.948Z,21.58
2018-02-24T19:40:01.299Z,21.37
2018-02-24T19:42:28.653Z,21.56
2018-02-24T19:44:56.056Z,21.50
2018-02-24T19:47:23.403Z,21.49
2018-02-24T19:49:50.743Z,21.48
2018-02-24T19:52:18.079Z,21.47
2018-02-24T19:54:45.419Z,21.54
2018-02-24T19:57:12.767Z,21.47
2018-02-24T19:59:40.111Z,21.53
2018-02-24T20:02:07.455Z,21.53
2018-02-24T20:04:34.798Z,21.49
2018-02-24T20:07:02.205Z,21.46
2018-02-24T20:09:29.540Z,21.49
2018-02-24T20:11:56.886Z,21.45
2018-02-24T20:14:24.225Z,21.45
2018-02-24T20:16:51.576Z,21.42
2018-02-24T20:19:18.931Z,21.47
2018-02-24T20:21:46.298Z,21.47
2018-02-24T20:24:13.634Z,21.51
2018-02-24T20:26:40.986Z,21.49
2018-02-24T20:29:08.398Z,21.43
2018-02-24T20:31:35.747Z,21.39
2018-02-24T20:34:03.192Z,21.48
2018-02-24T20:36:30.542Z,21.42
2018-02-24T20:38:57.937Z,21.43
2018-02-24T20:41:25.278Z,21.41
2018-02-24T20:43:52.673Z,21.52
2018-02-24T20:46:20.019Z,21.43
2018-02-24T20:48:47.403Z,21.46
2018-02-24T20:51:14.754Z,21.33
2018-02-24T20:53:42.158Z,21.46
2018-02-24T20:56:09.506Z,21.30
2018-02-24T20:58:36.898Z,21.43
2018-02-24T21:01:04.267Z,21.33
2018-02-24T21:03:31.602Z,21.40
2018-02-24T21:05:59.019Z,21.41
2018-02-24T21:08:26.381Z,21.44
2018-02-24T21:10:53.765Z,21.38
2018-02-24T21:13:21.124Z,21.40
2018-02-24T21:15:48.530Z,21.32
2018-02-24T21:18:15.884Z,21.42
2018-02-24T21:20:43.314Z,21.42
2018-02-24T21:23:10.684Z,21.46
2018-02-24T21:25:38.080Z,21.46
2018-02-24T21:28:05.430Z,21.43
2018-02-24T21:30:32.771Z,21.42
2018-02-24T21:33:00.166Z,21.40
2018-02-24T21:35:27.521Z,21.38
2018-02-24T21:37:54.929Z,21.45
2018-02-24T21:40:22.283Z,21.43
2018-02-24T21:42:49.645Z,21.35
2018-02-24T21:45:17.045Z,21.34
2018-02-24T21:47:44.401Z,21.33
2018-02-24T21:50:11.748Z,21.38
2018-02-24T21:52:39.172Z,21.24
2018-02-24T21:55:06.524Z,21.40
2018-02-24T21:57:33.907Z,21.37
2018-02-24T22:00:01.364Z,21.29
2018-02-24T22:02:28.682Z,21.34
2018-02-24T22:04:56.087Z,21.34
2018-02-24T22:07:23.450Z,21.32
2018-02-24T22:09:50.843Z,21.03
2018-02-24T22:12:18.201Z,21.27
2018-02-24T22:14:45.610Z,21.31
2018-02-24T22:17:12.979Z,21.28
2018-02-24T22:19:40.373Z,21.28
2018-02-24T22:22:07.789Z,21.25
2018-02-24T22:24:35.171Z,21.22
2018-02-24T22:27:02.579Z,21.25
2018-02-24T22:29:29.943Z,21.28
2018-02-24T22:31:57.367Z,21.16
2018-02-24T22:34:24.762Z,21.22
2018-02-24T22:36:52.120Z,21.18
2018-02-24T22:39:19.481Z,21.16
2018-02-24T22:41:46.875Z,21.07
2018-02-24T22:44:14.259Z,21.17
2018-02-24T22:46:41.641Z,21.19
2018-02-24T22:49:09.049Z,21.17
2018-02-24T22:51:36.429Z,21.14
2018-02-24T22:54:03.784Z,21.22
2018-02-24T22:56:31.175Z,21.08
2018-02-24T22:58:58.574Z,21.23
2018-02-24T23:01:25.960Z,21.06
2018-02-24T23:03:53.308Z,21.15
2018-02-24T23:06:20.695Z,21.18
2018-02-24T23:08:48.043Z,21.11
2018-02-24T23:11:15.419Z,21.18
2018-02-24T23:13:42.812Z,21.03
2018-02-24T23:16:10.169Z,20.98
2018-02-24T23:18:37.535Z,21.07
2018-02-24T23:21:04.933Z,21.13
2018-02-24T23:23:32.279Z,21.08
2018-02-24T23:28:31.890Z,21.04
2018-02-24T23:30:59.276Z,20.99
2018-02-24T23:33:26.612Z,21.05
2018-02-24T23:35:53.962Z,20.97
2018-02-24T23:38:21.361Z,20.98
2018-02-24T23:40:48.698Z,21.07
2018-02-24T23:43:16.031Z,21.06
2018-02-24T23:45:43.400Z,21.03
2018-02-24T23:48:10.838Z,21.07
2018-02-24T23:50:38.200Z,21.02
2018-02-24T23:53:05.542Z,20.97
2018-02-24T23:55:32.886Z,20.99
2018-02-24T23:58:00.243Z,20.94
